Edna T. Gattle — WDD2528 — position and weather

sailwx.info

Track history (hours):
 
Tides and Currents Weather Stations Pressure Air Temp Water Temp Dewpoint Dewpoint Depression Visibility Wind Speed Wind Dir Waves Ship Positions

Edna T. Gattle

Owner: Terral RiverService, Inc., Lake Providence, LA. More information available from US FCC via Universal Licensing System and Coast Guard Vessel Documentation Center.

Last reported at 2016-Jun-30 15:28 UTC. Time now 2016-Jun-30 17:46 UTC.
Position N 29°46' W 091°41'.

Length 33 m; draft 2.8 m.

Type: Towing. MMSI: 367116420.

Date/timePositionNaut miles runAvg speedWind from/ knotsBaromVisibWave heightAir tempDewpointWater temp
2016-Jun-30 15:28N 29°46' W 091°41'13 5.8
2016-Jun-30 13:15N 29°51' W 091°54'1 1.0
2016-Jun-30 12:33N 29°51' W 091°55'0 0.0
2016-Jun-30 11:33N 29°51' W 091°55'0 0.0
2016-Jun-30 10:33N 29°51' W 091°55'0 0.0
2016-Jun-30 09:32N 29°51' W 091°55'0 0.0
2016-Jun-30 08:33N 29°51' W 091°55'0 0.0
2016-Jun-30 07:32N 29°51' W 091°55'3 2.6
2016-Jun-30 06:33N 29°50' W 091°58'5 5.2
2016-Jun-30 05:33N 29°49' W 092°04'5 5.2
2016-Jun-30 04:33N 29°47' W 092°09'4 4.2
2016-Jun-30 03:33N 29°48' W 092°14'7 6.7
2016-Jun-30 02:33N 29°51' W 092°21'7 6.5
2016-Jun-30 01:33N 29°54' W 092°28'4 4.0
2016-Jun-30 00:33N 29°54' W 092°32'21 6.5
2016-Jun-29 21:16N 29°56' W 092°57'4 6.1
2016-Jun-29 20:33N 29°56' W 093°02'6 5.9
2016-Jun-29 19:33N 29°56' W 093°08'6 5.6
2016-Jun-29 18:33N 29°60' W 093°13'5 4.7
2016-Jun-29 17:33N 30°04' W 093°16'1 1.0
2016-Jun-29 16:33N 30°05' W 093°17'0 0.0
2016-Jun-29 15:33N 30°05' W 093°17'0 0.2
2016-Jun-29 14:33N 30°05' W 093°17'0 0.0
2016-Jun-29 13:33N 30°05' W 093°17'4 3.8
2016-Jun-29 12:33N 30°01' W 093°14'5 4.5
2016-Jun-29 11:33N 29°58' W 093°11'4 4.1
2016-Jun-29 10:33N 29°56' W 093°07'5 4.6
2016-Jun-29 09:33N 29°56' W 093°01'5 4.4
2016-Jun-29 08:30N 29°56' W 092°56'4 4.0
2016-Jun-29 07:30N 29°57' W 092°52'4 4.6
2016-Jun-29 06:33N 29°58' W 092°47'2 2.4
2016-Jun-29 05:33N 29°58' W 092°44'4 4.3
2016-Jun-29 04:33N 29°56' W 092°39'5 4.5
2016-Jun-29 03:32N 29°55' W 092°34'4 4.4
2016-Jun-29 02:33N 29°54' W 092°29'4 4.3
2016-Jun-29 01:33N 29°53' W 092°25'4 4.1
2016-Jun-29 00:33N 29°51' W 092°21'4 4.2
2016-Jun-28 23:33N 29°49' W 092°17'4 4.5
2016-Jun-28 22:33N 29°47' W 092°12'1 1.1
2016-Jun-28 21:33N 29°47' W 092°11'3 3.2
2016-Jun-28 20:33N 29°47' W 092°07'5 4.9
2016-Jun-28 19:33N 29°49' W 092°02'5 5.1
2016-Jun-28 18:33N 29°51' W 091°56'  
2016-Jun-21 20:06N 29°46' W 091°45'11 1.8
2016-Jun-21 14:12N 29°56' W 091°50'0 0.0
2016-Jun-20 22:05N 29°56' W 091°50'0 0.0
2016-Jun-20 17:29N 29°56' W 091°50'0 0.3
2016-Jun-20 16:32N 29°56' W 091°50'  
Track history (hours):
 
Tides and Currents Weather Stations Pressure Air Temp Water Temp Dewpoint Dewpoint Depression Visibility Wind Speed Wind Dir Waves Ship Positions

Edna T. Gattle

Owner: Terral RiverService, Inc., Lake Providence, LA. More information available from US FCC via Universal Licensing System and Coast Guard Vessel Documentation Center.

Last reported at 2016-Jun-30 15:28 UTC. Time now 2016-Jun-30 17:46 UTC.
Position N 29°46' W 091°41'.

Length 33 m; draft 2.8 m.

Type: Towing. MMSI: 367116420.

Date/timePositionNaut miles runAvg speedWind from/ knotsBaromVisibWave heightAir tempDewpointWater temp
2016-Jun-30 15:28N 29°46' W 091°41'13 5.8
2016-Jun-30 13:15N 29°51' W 091°54'1 1.0
2016-Jun-30 12:33N 29°51' W 091°55'0 0.0
2016-Jun-30 11:33N 29°51' W 091°55'0 0.0
2016-Jun-30 10:33N 29°51' W 091°55'0 0.0
2016-Jun-30 09:32N 29°51' W 091°55'0 0.0
2016-Jun-30 08:33N 29°51' W 091°55'0 0.0
2016-Jun-30 07:32N 29°51' W 091°55'3 2.6
2016-Jun-30 06:33N 29°50' W 091°58'5 5.2
2016-Jun-30 05:33N 29°49' W 092°04'5 5.2
2016-Jun-30 04:33N 29°47' W 092°09'4 4.2
2016-Jun-30 03:33N 29°48' W 092°14'7 6.7
2016-Jun-30 02:33N 29°51' W 092°21'7 6.5
2016-Jun-30 01:33N 29°54' W 092°28'4 4.0
2016-Jun-30 00:33N 29°54' W 092°32'21 6.5
2016-Jun-29 21:16N 29°56' W 092°57'4 6.1
2016-Jun-29 20:33N 29°56' W 093°02'6 5.9
2016-Jun-29 19:33N 29°56' W 093°08'6 5.6
2016-Jun-29 18:33N 29°60' W 093°13'5 4.7
2016-Jun-29 17:33N 30°04' W 093°16'1 1.0
2016-Jun-29 16:33N 30°05' W 093°17'0 0.0
2016-Jun-29 15:33N 30°05' W 093°17'0 0.2
2016-Jun-29 14:33N 30°05' W 093°17'0 0.0
2016-Jun-29 13:33N 30°05' W 093°17'4 3.8
2016-Jun-29 12:33N 30°01' W 093°14'5 4.5
2016-Jun-29 11:33N 29°58' W 093°11'4 4.1
2016-Jun-29 10:33N 29°56' W 093°07'5 4.6
2016-Jun-29 09:33N 29°56' W 093°01'5 4.4
2016-Jun-29 08:30N 29°56' W 092°56'4 4.0
2016-Jun-29 07:30N 29°57' W 092°52'4 4.6
2016-Jun-29 06:33N 29°58' W 092°47'2 2.4
2016-Jun-29 05:33N 29°58' W 092°44'4 4.3
2016-Jun-29 04:33N 29°56' W 092°39'5 4.5
2016-Jun-29 03:32N 29°55' W 092°34'4 4.4
2016-Jun-29 02:33N 29°54' W 092°29'4 4.3
2016-Jun-29 01:33N 29°53' W 092°25'4 4.1
2016-Jun-29 00:33N 29°51' W 092°21'4 4.2
2016-Jun-28 23:33N 29°49' W 092°17'4 4.5
2016-Jun-28 22:33N 29°47' W 092°12'1 1.1
2016-Jun-28 21:33N 29°47' W 092°11'3 3.2
2016-Jun-28 20:33N 29°47' W 092°07'5 4.9
2016-Jun-28 19:33N 29°49' W 092°02'5 5.1
2016-Jun-28 18:33N 29°51' W 091°56'  
2016-Jun-21 20:06N 29°46' W 091°45'11 1.8
2016-Jun-21 14:12N 29°56' W 091°50'0 0.0
2016-Jun-20 22:05N 29°56' W 091°50'0 0.0
2016-Jun-20 17:29N 29°56' W 091°50'0 0.3
2016-Jun-20 16:32N 29°56' W 091°50'  

Dump ship's entire track history